Time;durP1;ratioP1;P1;durP2;ratioP2;P2;SDS_P1;SDS_P2;PMS_P1;PMS_P2;Temp;Humidity;BMP_temperature;BMP_pressure;BME280_temperature;BME280_humidity;BME280_pressure;Samples;Min_cycle;Max_cycle;Signal;HPM_P1;HPM_P2
2023/06/09 00:00:33;;;;;;;5.15;3.50;;;;;;;15.54;83.97;95992.53;5027959;28;20052;-72
2023/06/09 00:02:59;;;;;;;3.85;3.20;;;;;;;15.64;84.29;95988.47;5021940;28;20050;-73
2023/06/09 00:05:32;;;;;;;4.82;3.58;;;;;;;15.53;84.29;95977.22;5021933;28;20049;-72
2023/06/09 00:07:58;;;;;;;4.50;3.10;;;;;;;15.70;85.78;95972.50;5030120;28;20437;-73
2023/06/09 00:10:25;;;;;;;6.40;3.05;;;;;;;15.53;83.92;95976.44;5029604;28;20045;-72
2023/06/09 00:12:53;;;;;;;5.35;3.10;;;;;;;15.59;83.50;95969.50;5029967;28;20052;-72
2023/06/09 00:15:20;;;;;;;3.50;2.80;;;;;;;15.65;83.65;95977.13;5029254;28;20054;-72
2023/06/09 00:17:48;;;;;;;3.70;2.85;;;;;;;15.68;84.37;95978.38;5035042;28;20048;-72
2023/06/09 00:20:14;;;;;;;4.43;2.80;;;;;;;15.68;84.09;95975.63;5018419;28;20095;-73
2023/06/09 00:22:43;;;;;;;3.67;2.92;;;;;;;15.78;83.68;95977.00;5030875;28;20095;-72
2023/06/09 00:25:11;;;;;;;5.78;3.35;;;;;;;15.80;83.97;95980.97;5029103;28;20079;-73
2023/06/09 00:27:38;;;;;;;6.05;3.00;;;;;;;15.88;85.05;95969.00;5022615;28;20123;-72
2023/06/09 00:30:08;;;;;;;6.05;3.30;;;;;;;15.90;85.88;95966.66;5029095;28;20171;-72
2023/06/09 00:32:35;;;;;;;5.15;3.10;;;;;;;15.93;86.65;95969.88;5024163;28;20077;-72
2023/06/09 00:35:01;;;;;;;3.97;3.25;;;;;;;15.91;86.82;95976.47;5030171;28;20520;-72
2023/06/09 00:37:28;;;;;;;3.97;3.00;;;;;;;15.94;86.39;95969.50;5024635;28;20065;-73
2023/06/09 00:39:54;;;;;;;4.45;2.85;;;;;;;15.95;86.13;95967.53;5029829;28;20049;-72
2023/06/09 00:42:21;;;;;;;4.78;3.33;;;;;;;15.97;85.41;95973.44;5029112;28;20451;-73
2023/06/09 00:44:47;;;;;;;5.82;3.78;;;;;;;15.94;85.40;95977.72;5029645;28;20527;-72
2023/06/09 00:47:15;;;;;;;4.10;2.95;;;;;;;15.93;85.55;95976.16;5028239;28;20045;-72
2023/06/09 00:49:43;;;;;;;4.90;3.35;;;;;;;15.93;86.61;95976.16;5022685;28;20559;-72
2023/06/09 00:52:10;;;;;;;4.20;3.47;;;;;;;15.97;87.73;95976.19;5028968;28;20077;-73
2023/06/09 00:54:37;;;;;;;6.90;4.53;;;;;;;15.96;88.70;95978.16;5029114;28;20492;-73
2023/06/09 00:57:05;;;;;;;5.15;4.00;;;;;;;15.96;89.28;95977.34;5028886;28;20277;-72
2023/06/09 00:59:34;;;;;;;5.40;4.07;;;;;;;15.99;89.32;95984.88;5029056;28;20671;-73
2023/06/09 01:02:03;;;;;;;4.95;3.97;;;;;;;15.99;88.79;95977.44;5028952;28;20045;-72
2023/06/09 01:04:32;;;;;;;5.53;4.18;;;;;;;15.99;88.59;95976.66;5029160;28;20107;-73
2023/06/09 01:07:07;;;;;;;6.10;4.38;;;;;;;15.99;88.71;95976.66;5029441;28;20065;-73
2023/06/09 01:09:39;;;;;;;5.47;4.65;;;;;;;16.01;89.22;95977.06;5026043;28;20612;-73
2023/06/09 01:12:15;;;;;;;6.60;4.30;;;;;;;15.98;89.36;95969.56;5014315;28;20448;-73
2023/06/09 01:14:47;;;;;;;6.47;4.78;;;;;;;15.99;89.39;95960.16;5028640;28;20061;-73
2023/06/09 01:17:18;;;;;;;7.97;5.00;;;;;;;15.96;89.72;95971.88;5028403;28;20516;-73
2023/06/09 01:19:48;;;;;;;6.88;5.50;;;;;;;15.96;90.19;95977.34;5029498;28;20073;-73
2023/06/09 01:22:28;;;;;;;7.15;5.30;;;;;;;15.89;90.69;95973.31;5028398;28;20046;-73
2023/06/09 01:25:05;;;;;;;6.18;4.88;;;;;;;15.85;90.72;95977.94;5028884;28;20056;-72
2023/06/09 01:27:36;;;;;;;6.13;4.50;;;;;;;15.90;90.67;95977.66;5028889;28;20412;-73
2023/06/09 01:30:03;;;;;;;6.22;4.90;;;;;;;15.95;90.46;95973.03;5028750;28;20073;-73
2023/06/09 01:32:32;;;;;;;8.98;6.10;;;;;;;15.84;90.24;95981.06;5028435;28;20064;-72
2023/06/09 01:34:59;;;;;;;7.25;4.68;;;;;;;15.90;90.31;95974.91;5029092;28;20049;-73
2023/06/09 01:37:26;;;;;;;7.80;4.80;;;;;;;15.91;90.39;95973.75;5018259;28;20034;-73
2023/06/09 01:39:52;;;;;;;6.68;5.20;;;;;;;15.94;90.06;95968.69;5028527;28;20045;-72
2023/06/09 01:42:19;;;;;;;5.68;4.80;;;;;;;15.98;89.96;95977.81;5019014;28;20045;-72
2023/06/09 01:44:47;;;;;;;7.70;4.55;;;;;;;15.99;89.76;95979.41;5013228;28;20045;-72
2023/06/09 01:47:15;;;;;;;6.78;5.20;;;;;;;15.95;89.77;95967.53;5012827;28;20049;-72
2023/06/09 01:49:49;;;;;;;7.28;4.88;;;;;;;15.88;89.71;95977.22;5025077;28;20068;-72
2023/06/09 01:52:19;;;;;;;7.80;5.18;;;;;;;15.92;89.87;95971.78;5032436;28;20432;-72
2023/06/09 01:54:53;;;;;;;7.25;4.72;;;;;;;15.95;89.77;95967.53;5031499;28;20038;-72
2023/06/09 01:57:20;;;;;;;;;;;;;;;15.95;89.68;95970.28;5032654;28;20224;-72
2023/06/09 01:59:56;;;;;;;7.32;4.95;;;;;;;15.89;89.26;95970.56;5032482;28;19928;-73
2023/06/09 02:02:26;;;;;;;8.57;5.47;;;;;;;15.84;89.76;95976.34;5031195;28;20683;-73
2023/06/09 02:04:54;;;;;;;5.90;4.78;;;;;;;15.88;89.99;95976.44;5032542;28;20046;-72
2023/06/09 02:07:22;;;;;;;6.57;5.20;;;;;;;15.87;89.56;95974.84;5032076;28;20552;-72
2023/06/09 02:09:49;;;;;;;6.45;4.82;;;;;;;15.84;89.19;95976.34;5033359;28;20049;-72
2023/06/09 02:12:16;;;;;;;6.68;5.03;;;;;;;15.84;88.70;95981.06;5038099;28;20064;-71
2023/06/09 02:14:43;;;;;;;6.93;5.18;;;;;;;15.84;88.73;95975.56;5033391;28;20045;-73
2023/06/09 02:17:11;;;;;;;8.43;5.18;;;;;;;15.83;88.99;95974.75;5032414;28;20418;-72
2023/06/09 02:19:38;;;;;;;7.82;5.10;;;;;;;15.82;88.85;95977.88;5033202;28;20041;-72
2023/06/09 02:22:06;;;;;;;12.57;6.10;;;;;;;15.80;88.21;95980.19;5032658;28;20049;-72
2023/06/09 02:24:33;;;;;;;7.35;5.53;;;;;;;15.77;88.33;95986.41;5033453;28;20052;-73
2023/06/09 02:26:59;;;;;;;6.80;5.13;;;;;;;15.77;88.69;95981.69;5033468;28;20113;-72
2023/06/09 02:29:26;;;;;;;8.02;5.05;;;;;;;15.78;89.24;95985.25;5032714;28;20120;-73
2023/06/09 02:31:54;;;;;;;8.38;5.78;;;;;;;15.79;89.64;95984.88;5040304;28;20527;-72
2023/06/09 02:34:23;;;;;;;8.68;5.72;;;;;;;15.79;88.97;95987.63;5014840;28;20045;-72
2023/06/09 02:36:52;;;;;;;7.13;5.70;;;;;;;15.79;89.68;95982.13;5027461;28;20041;-71
2023/06/09 02:39:19;;;;;;;8.13;5.68;;;;;;;15.81;90.17;95982.56;5032318;28;20445;-72
2023/06/09 02:41:46;;;;;;;8.00;6.35;;;;;;;15.79;90.29;95978.59;5031441;28;20049;-72
2023/06/09 02:44:12;;;;;;;8.07;6.13;;;;;;;15.78;90.20;95977.78;5031114;28;20050;-72
2023/06/09 02:46:40;;;;;;;8.88;6.15;;;;;;;15.78;90.35;95983.28;5031817;28;20064;-72
2023/06/09 02:49:06;;;;;;;9.13;6.22;;;;;;;15.72;90.07;95989.44;5030981;28;20076;-72
2023/06/09 02:51:34;;;;;;;8.50;6.70;;;;;;;15.62;89.95;95988.00;5029371;28;20616;-72
2023/06/09 02:54:01;;;;;;;11.65;6.65;;;;;;;15.62;90.23;95990.75;5025836;28;20045;-72
2023/06/09 02:56:28;;;;;;;9.65;6.20;;;;;;;15.61;90.52;95986.44;5029877;28;20061;-71
2023/06/09 02:58:54;;;;;;;6.80;5.30;;;;;;;15.62;90.10;95985.28;5024091;28;20041;-72
2023/06/09 03:01:22;;;;;;;8.48;5.85;;;;;;;15.58;89.92;95990.66;5027566;28;20049;-71
2023/06/09 03:03:48;;;;;;;9.90;6.43;;;;;;;15.60;89.69;95993.03;5031525;28;20064;-72
2023/06/09 03:06:16;;;;;;;7.90;6.03;;;;;;;15.60;90.19;95988.34;5030809;28;20045;-72
2023/06/09 03:08:44;;;;;;;8.80;6.40;;;;;;;15.55;90.17;96001.56;5031073;28;20040;-72
2023/06/09 03:11:11;;;;;;;7.05;5.57;;;;;;;15.54;89.64;95995.28;5030547;28;20046;-72
2023/06/09 03:13:37;;;;;;;9.27;5.97;;;;;;;15.48;89.52;95995.94;5030962;28;20072;-72
2023/06/09 03:16:04;;;;;;;6.75;5.22;;;;;;;15.42;89.38;95995.41;5027835;28;20059;-72
2023/06/09 03:18:31;;;;;;;9.73;5.38;;;;;;;15.42;89.29;96000.09;5014348;28;20049;-72
2023/06/09 03:21:01;;;;;;;6.53;5.40;;;;;;;15.35;89.30;95998.00;5013270;28;20057;-71
2023/06/09 03:23:28;;;;;;;7.70;5.97;;;;;;;15.30;89.16;96001.03;5029157;28;20064;-72
2023/06/09 03:25:57;;;;;;;9.40;5.93;;;;;;;15.24;89.42;96005.16;5030522;28;20050;-72
2023/06/09 03:28:24;;;;;;;6.72;5.32;;;;;;;15.24;89.38;96008.69;5030174;28;20060;-73
2023/06/09 03:30:50;;;;;;;7.05;5.20;;;;;;;15.23;89.41;96009.06;5030994;28;20052;-72
2023/06/09 03:33:18;;;;;;;7.80;5.45;;;;;;;15.23;89.68;96009.84;5029859;28;20045;-72
2023/06/09 03:35:45;;;;;;;8.00;5.97;;;;;;;15.23;89.79;96009.84;5030969;28;20045;-72
2023/06/09 03:38:11;;;;;;;9.00;6.20;;;;;;;15.23;90.11;96007.13;5030288;28;20056;-72
2023/06/09 03:40:38;;;;;;;9.13;5.45;;;;;;;15.25;90.49;96007.56;5030101;28;20053;-71
2023/06/09 03:43:07;;;;;;;8.30;5.78;;;;;;;15.29;90.77;96015.88;5029360;28;20046;-73
2023/06/09 03:45:34;;;;;;;6.78;5.68;;;;;;;15.30;90.81;96018.28;5027663;28;20135;-71
2023/06/09 03:48:01;;;;;;;7.22;5.53;;;;;;;15.34;91.46;96010.09;5018794;28;20054;-71
2023/06/09 03:50:27;;;;;;;9.70;6.00;;;;;;;15.36;91.49;96016.03;5010459;28;20390;-72
2023/06/09 03:52:54;;;;;;;7.47;5.15;;;;;;;15.38;90.85;96008.25;5010871;28;20045;-71
2023/06/09 03:55:22;;;;;;;8.20;5.13;;;;;;;15.40;90.38;96014.19;5018650;28;20048;-72
2023/06/09 03:57:48;;;;;;;8.00;5.20;;;;;;;15.42;90.08;96022.06;5034097;28;20050;-72
2023/06/09 04:00:18;;;;;;;7.88;5.72;;;;;;;15.40;89.88;96014.19;5026132;28;20072;-72
2023/06/09 04:02:45;;;;;;;6.55;5.25;;;;;;;15.39;89.87;96021.59;5025002;28;20045;-72
2023/06/09 04:05:11;;;;;;;6.93;5.13;;;;;;;15.38;89.24;96030.97;5029115;28;20712;-71
2023/06/09 04:07:39;;;;;;;8.35;4.93;;;;;;;15.39;89.09;96020.81;5022096;28;20042;-72
2023/06/09 04:10:06;;;;;;;8.02;5.28;;;;;;;15.35;89.04;96025.44;5029762;28;20575;-71
2023/06/09 04:12:33;;;;;;;8.10;4.95;;;;;;;15.35;88.99;96026.22;5029890;28;20041;-72
2023/06/09 04:15:00;;;;;;;8.10;5.85;;;;;;;15.38;88.83;96030.97;5029783;28;20056;-72
2023/06/09 04:17:28;;;;;;;7.20;5.38;;;;;;;15.45;89.12;96024.06;5029043;28;20042;-72
2023/06/09 04:19:55;;;;;;;6.75;5.35;;;;;;;15.42;88.66;96019.31;5030059;28;20050;-71
2023/06/09 04:22:21;;;;;;;8.10;5.70;;;;;;;15.42;88.74;96020.09;5029140;28;20111;-72
2023/06/09 04:24:48;;;;;;;9.50;5.90;;;;;;;15.48;89.00;96028.84;5028916;28;20041;-71
2023/06/09 04:27:19;;;;;;;7.40;5.30;;;;;;;15.50;89.17;96032.03;5026782;28;20516;-72
2023/06/09 04:29:45;;;;;;;8.68;5.90;;;;;;;15.52;88.97;96029.72;5028747;28;20037;-72
2023/06/09 04:32:12;;;;;;;7.45;5.45;;;;;;;15.55;89.25;96024.31;5029683;28;20071;-72
2023/06/09 04:34:40;;;;;;;7.70;5.50;;;;;;;15.55;88.93;96020.78;5029427;28;20408;-72
2023/06/09 04:37:08;;;;;;;6.50;4.85;;;;;;;15.59;88.78;96021.66;5035455;28;20049;-72
2023/06/09 04:39:35;;;;;;;7.55;5.63;;;;;;;15.60;88.67;96026.78;5013551;28;20046;-71
2023/06/09 04:42:03;;;;;;;6.68;5.68;;;;;;;15.63;88.64;96019.81;5025097;28;20079;-71
2023/06/09 04:44:30;;;;;;;7.78;5.72;;;;;;;15.68;88.92;96022.28;5029252;28;20042;-72
2023/06/09 04:46:56;;;;;;;7.82;5.65;;;;;;;15.70;89.27;96017.22;5029672;28;20068;-72
2023/06/09 04:49:23;;;;;;;7.43;5.70;;;;;;;15.75;88.93;96018.88;5028976;28;20074;-72
2023/06/09 04:51:54;;;;;;;7.60;6.18;;;;;;;15.78;89.54;96020.94;5029919;28;20041;-72
2023/06/09 04:54:22;;;;;;;7.85;5.50;;;;;;;15.83;89.63;96017.91;5029024;28;20077;-72
2023/06/09 04:56:52;;;;;;;7.00;5.57;;;;;;;15.84;90.02;96023.03;5028949;28;20045;-72
2023/06/09 04:59:18;;;;;;;7.90;6.10;;;;;;;15.90;89.85;96023.53;5028586;28;20072;-72
2023/06/09 05:01:46;;;;;;;7.53;6.22;;;;;;;15.95;89.97;96028.75;5029169;28;20413;-72
2023/06/09 05:04:13;;;;;;;10.55;5.80;;;;;;;15.97;90.13;96025.63;5028898;28;20042;-72
2023/06/09 05:06:39;;;;;;;10.60;6.90;;;;;;;16.01;90.27;96030.03;5029510;28;20056;-71
2023/06/09 05:09:08;;;;;;;9.60;6.50;;;;;;;16.06;90.11;96028.97;5028985;28;20076;-72
2023/06/09 05:11:35;;;;;;;9.30;6.60;;;;;;;16.08;90.06;96026.66;5029443;28;20073;-72
2023/06/09 05:14:02;;;;;;;8.85;6.63;;;;;;;16.12;90.48;96025.56;5029206;28;20059;-75
2023/06/09 05:16:29;;;;;;;11.50;6.95;;;;;;;16.17;90.15;96021.72;5030240;28;20515;-72
2023/06/09 05:18:56;;;;;;;8.73;6.72;;;;;;;16.23;90.42;96025.78;5033387;28;20103;-71
2023/06/09 05:21:23;;;;;;;9.43;7.40;;;;;;;16.28;90.83;96028.22;5032910;28;20135;-72
2023/06/09 05:23:50;;;;;;;10.80;8.00;;;;;;;16.34;91.59;96032.28;5025524;28;20049;-72
2023/06/09 05:26:18;;;;;;;9.65;7.13;;;;;;;16.41;91.45;96032.41;5032829;28;20052;-72
2023/06/09 05:28:45;;;;;;;8.90;6.80;;;;;;;16.47;91.37;96037.63;5029295;28;20050;-72
2023/06/09 05:31:12;;;;;;;11.55;8.05;;;;;;;16.51;90.92;96039.28;5027630;28;20080;-71
2023/06/09 05:33:39;;;;;;;9.13;6.80;;;;;;;16.57;90.88;96039.78;5030698;28;20046;-72
2023/06/09 05:36:06;;;;;;;9.40;7.40;;;;;;;16.66;90.99;96048.59;5024172;28;20046;-72
2023/06/09 05:38:33;;;;;;;13.63;8.75;;;;;;;16.61;91.14;96046.94;5023701;28;20046;-72
2023/06/09 05:40:59;;;;;;;10.63;7.75;;;;;;;16.74;90.65;96053.09;5025194;28;20053;-72
2023/06/09 05:43:28;;;;;;;9.45;8.10;;;;;;;16.83;90.23;96047.34;5025350;28;20049;-72
2023/06/09 05:45:55;;;;;;;9.70;7.47;;;;;;;16.88;89.77;96049.81;5022817;28;20107;-72
2023/06/09 05:48:21;;;;;;;8.90;7.30;;;;;;;16.90;89.31;96053.75;5031860;28;20049;-72
2023/06/09 05:50:48;;;;;;;8.40;6.95;;;;;;;16.90;88.98;96056.50;5032410;28;20049;-72
2023/06/09 05:53:15;;;;;;;9.57;7.45;;;;;;;16.93;88.85;96053.03;5027552;28;20041;-73
2023/06/09 05:55:41;;;;;;;8.77;7.68;;;;;;;16.93;89.15;96055.78;5017589;28;20621;-73
2023/06/09 05:58:09;;;;;;;12.70;8.30;;;;;;;16.91;89.48;96060.88;5027268;28;20512;-73
2023/06/09 06:00:36;;;;;;;9.20;7.68;;;;;;;16.93;89.43;96064.03;5027079;28;20499;-73
2023/06/09 06:03:03;;;;;;;9.95;8.23;;;;;;;16.95;89.64;96050.72;5027119;28;20053;-74
2023/06/09 06:05:30;;;;;;;13.40;8.98;;;;;;;16.86;88.72;96052.09;5027839;28;20056;-73
2023/06/09 06:07:57;;;;;;;11.75;8.60;;;;;;;16.70;87.69;96049.44;5028973;28;20052;-73
2023/06/09 06:10:23;;;;;;;10.02;8.48;;;;;;;16.66;87.77;96059.59;5029181;28;20042;-73
2023/06/09 06:12:50;;;;;;;12.55;9.50;;;;;;;16.54;88.90;96057.00;5029564;28;20413;-73
2023/06/09 06:15:16;;;;;;;11.57;8.35;;;;;;;16.81;88.67;96053.22;5029324;28;20057;-73
2023/06/09 06:17:44;;;;;;;10.57;8.45;;;;;;;16.85;87.92;96056.03;5029224;28;20049;-72
2023/06/09 06:20:13;;;;;;;10.02;7.47;;;;;;;17.07;87.29;96054.44;5029048;28;20056;-73
2023/06/09 06:22:41;;;;;;;9.27;7.50;;;;;;;17.22;87.64;96054.31;5029731;28;20045;-72
2023/06/09 06:25:13;;;;;;;8.25;7.07;;;;;;;17.43;88.07;96047.56;5020747;28;20342;-73
2023/06/09 06:27:39;;;;;;;10.65;8.40;;;;;;;17.43;86.05;96053.84;5028364;28;20045;-72
2023/06/09 06:30:08;;;;;;;8.75;7.13;;;;;;;17.38;84.72;96062.44;5028957;28;20064;-73
2023/06/09 06:32:34;;;;;;;10.70;7.05;;;;;;;17.35;84.10;96062.38;5029413;28;20486;-73
2023/06/09 06:35:02;;;;;;;8.65;6.78;;;;;;;17.55;83.69;96065.84;5033854;28;20055;-73
2023/06/09 06:37:29;;;;;;;9.38;6.80;;;;;;;17.45;82.88;96068.06;5023917;28;20099;-72
2023/06/09 06:39:55;;;;;;;7.80;6.63;;;;;;;17.40;82.24;96071.13;5029125;28;20065;-72
2023/06/09 06:42:22;;;;;;;26.25;8.15;;;;;;;17.47;82.00;96070.44;5028743;28;20049;-72
2023/06/09 06:44:48;;;;;;;31.75;8.90;;;;;;;17.57;83.28;96064.31;5026323;28;20049;-71
2023/06/09 06:47:15;;;;;;;7.72;5.85;;;;;;;17.59;81.08;96066.69;5023263;28;20041;-72
2023/06/09 06:49:41;;;;;;;7.78;6.18;;;;;;;17.67;78.92;96063.66;5029001;28;20038;-72
2023/06/09 06:52:09;;;;;;;7.75;6.07;;;;;;;17.65;79.22;96059.72;5029985;28;20060;-72
2023/06/09 06:54:36;;;;;;;8.95;6.32;;;;;;;17.72;78.36;96059.81;5031686;28;20042;-72
2023/06/09 06:57:02;;;;;;;8.35;6.30;;;;;;;17.86;79.79;96054.53;5030971;28;20045;-73
2023/06/09 06:59:29;;;;;;;6.72;5.90;;;;;;;18.05;79.47;96050.06;5031106;28;20061;-72
2023/06/09 07:01:55;;;;;;;8.38;6.22;;;;;;;18.10;78.66;96052.47;5028315;28;20045;-72
2023/06/09 07:04:22;;;;;;;9.68;6.35;;;;;;;18.17;77.39;96053.38;5030717;28;20064;-73
2023/06/09 07:06:48;;;;;;;8.10;6.53;;;;;;;18.26;78.35;96056.63;5031697;28;20044;-77
2023/06/09 07:09:16;;;;;;;7.28;5.18;;;;;;;18.41;77.70;96063.09;5033260;28;20046;-73
2023/06/09 07:11:44;;;;;;;6.68;5.60;;;;;;;18.50;75.61;96057.31;5012300;28;20141;-72
2023/06/09 07:14:10;;;;;;;9.13;5.93;;;;;;;18.65;74.54;96063.78;5025234;28;20080;-73
2023/06/09 07:16:37;;;;;;;6.25;4.97;;;;;;;18.79;74.98;96072.22;5031043;28;20065;-73
2023/06/09 07:19:03;;;;;;;7.93;5.78;;;;;;;18.85;73.66;96067.97;5031606;28;20049;-74
2023/06/09 07:21:32;;;;;;;9.35;5.90;;;;;;;18.76;73.97;96078.50;5032361;28;20041;-73
2023/06/09 07:23:58;;;;;;;11.82;6.45;;;;;;;18.87;74.58;96073.91;5031582;28;20046;-73
2023/06/09 07:26:26;;;;;;;7.45;5.68;;;;;;;18.94;72.25;96081.44;5022694;28;20049;-72
2023/06/09 07:28:52;;;;;;;7.85;6.47;;;;;;;18.93;71.99;96077.91;5031194;28;20180;-72
2023/06/09 07:31:19;;;;;;;6.97;6.13;;;;;;;18.86;71.15;96072.31;5031253;28;20048;-73
2023/06/09 07:33:46;;;;;;;7.05;5.90;;;;;;;18.92;71.63;96075.53;5032318;28;20053;-72
2023/06/09 07:36:13;;;;;;;8.88;6.30;;;;;;;18.94;71.42;96073.16;5031377;28;20559;-73
2023/06/09 07:38:42;;;;;;;7.20;5.95;;;;;;;19.20;72.40;96081.31;5031064;28;20128;-73
2023/06/09 07:41:09;;;;;;;6.95;5.72;;;;;;;19.27;71.44;96072.31;5030625;28;20092;-72
2023/06/09 07:43:37;;;;;;;9.05;6.78;;;;;;;19.41;70.46;96075.19;5031660;28;20129;-72
2023/06/09 07:46:03;;;;;;;8.63;6.53;;;;;;;19.36;71.18;96072.75;5026093;28;20042;-73
2023/06/09 07:48:30;;;;;;;8.45;6.50;;;;;;;19.54;70.95;96076.47;5011542;28;20046;-73
2023/06/09 07:50:57;;;;;;;7.18;5.68;;;;;;;19.64;69.93;96080.53;5011382;28;20468;-73
2023/06/09 07:53:23;;;;;;;6.85;5.53;;;;;;;19.88;69.89;96076.34;5010632;28;20101;-73
2023/06/09 07:55:50;;;;;;;7.25;5.63;;;;;;;20.08;68.86;96063.81;5011087;28;20046;-73
2023/06/09 07:58:16;;;;;;;10.55;7.20;;;;;;;20.14;70.21;96072.53;5019652;28;20048;-72
2023/06/09 08:00:44;;;;;;;6.72;5.50;;;;;;;20.17;67.86;96068.22;5030535;28;20045;-73
2023/06/09 08:03:11;;;;;;;14.98;10.65;;;;;;;20.32;68.71;96061.59;5030377;28;20045;-73
2023/06/09 08:05:37;;;;;;;8.38;7.00;;;;;;;20.08;65.66;96063.03;5030556;28;20041;-73
2023/06/09 08:08:04;;;;;;;9.45;6.85;;;;;;;20.17;66.36;96065.47;5029840;28;20404;-73
2023/06/09 08:10:31;;;;;;;9.55;6.75;;;;;;;20.32;66.62;96070.69;5030482;28;20052;-73
2023/06/09 08:12:57;;;;;;;10.27;7.75;;;;;;;20.47;67.24;96068.81;5030338;28;20041;-73
2023/06/09 08:15:24;;;;;;;6.00;5.10;;;;;;;20.74;65.29;96066.50;5030088;28;20048;-73
2023/06/09 08:17:51;;;;;;;14.48;10.50;;;;;;;20.77;63.62;96070.47;5030147;28;20053;-72
2023/06/09 08:20:18;;;;;;;6.60;5.45;;;;;;;20.78;61.65;96058.22;5029489;28;20443;-73
2023/06/09 08:22:45;;;;;;;7.43;5.07;;;;;;;21.15;61.88;96055.13;5030088;28;20436;-73
2023/06/09 08:25:12;;;;;;;8.00;5.22;;;;;;;21.36;61.28;96057.16;5029739;28;20073;-73
2023/06/09 08:27:38;;;;;;;6.97;5.43;;;;;;;21.41;58.80;96056.75;5030043;28;20049;-73
2023/06/09 08:30:07;;;;;;;6.18;4.85;;;;;;;21.62;59.96;96053.97;5029754;28;20072;-73
2023/06/09 08:32:33;;;;;;;29.90;27.33;;;;;;;21.78;60.25;96050.00;5030326;28;20049;-72
2023/06/09 08:35:07;;;;;;;6.75;6.00;;;;;;;22.06;62.67;96054.69;5029999;28;20053;-73
2023/06/09 08:37:33;;;;;;;7.43;6.13;;;;;;;22.24;59.40;96055.47;5029838;28;20562;-73
2023/06/09 08:40:02;;;;;;;6.85;4.95;;;;;;;22.10;57.12;96055.47;5029830;28;20148;-73
2023/06/09 08:42:32;;;;;;;8.23;5.05;;;;;;;22.09;57.06;96045.59;5029842;28;20048;-72
2023/06/09 08:45:00;;;;;;;6.30;4.65;;;;;;;22.35;57.06;96047.91;5030103;28;20493;-73
2023/06/09 08:47:28;;;;;;;7.75;4.93;;;;;;;22.19;56.54;96055.09;5036498;28;20099;-73
2023/06/09 08:49:57;;;;;;;9.40;5.40;;;;;;;22.49;57.06;96047.03;5013125;28;20046;-73
2023/06/09 08:52:25;;;;;;;6.03;5.35;;;;;;;22.63;55.51;96054.53;5010837;28;20042;-73
2023/06/09 08:54:53;;;;;;;6.05;4.60;;;;;;;22.81;55.54;96048.88;5010938;28;20054;-72
2023/06/09 08:57:20;;;;;;;5.82;4.45;;;;;;;22.72;54.47;96056.88;5024749;28;20049;-73
2023/06/09 08:59:48;;;;;;;7.25;5.20;;;;;;;22.58;55.69;96052.94;5013981;28;20042;-73
2023/06/09 09:02:15;;;;;;;5.45;4.53;;;;;;;22.66;54.34;96057.28;5012150;28;20042;-73
2023/06/09 09:04:42;;;;;;;6.68;4.65;;;;;;;22.89;54.83;96056.00;5028626;28;20524;-73
2023/06/09 09:07:11;;;;;;;5.97;4.40;;;;;;;22.35;53.81;96049.91;5023707;28;20049;-74
2023/06/09 09:09:39;;;;;;;4.57;3.90;;;;;;;22.53;54.90;96055.34;5024155;28;20049;-73
2023/06/09 09:12:07;;;;;;;6.82;4.50;;;;;;;22.51;54.92;96053.00;5030870;28;20049;-72
2023/06/09 09:14:33;;;;;;;5.05;4.07;;;;;;;22.72;54.90;96048.53;5024813;28;20046;-75
2023/06/09 09:17:00;;;;;;;6.05;4.32;;;;;;;22.85;53.25;96044.88;5032031;28;20045;-73
2023/06/09 09:19:27;;;;;;;5.35;3.80;;;;;;;22.99;52.98;96038.50;5030382;28;20048;-73
2023/06/09 09:21:55;;;;;;;5.55;3.92;;;;;;;22.96;50.93;96033.72;5029710;28;20050;-73
2023/06/09 09:24:21;;;;;;;5.97;4.43;;;;;;;22.94;50.94;96030.59;5021210;28;20072;-72
2023/06/09 09:26:49;;;;;;;6.75;3.97;;;;;;;23.21;51.32;96027.22;5029756;28;20095;-73
2023/06/09 09:29:16;;;;;;;6.00;4.47;;;;;;;23.43;51.52;96034.19;5015713;28;20045;-73
2023/06/09 09:31:42;;;;;;;5.90;4.15;;;;;;;23.39;48.76;96025.91;5009773;28;20052;-72
2023/06/09 09:34:11;;;;;;;7.15;4.18;;;;;;;23.47;52.01;96029.41;5008853;28;20494;-73
2023/06/09 09:36:41;;;;;;;4.30;3.55;;;;;;;23.67;49.14;96021.31;5025882;28;20073;-73
2023/06/09 09:39:08;;;;;;;5.40;3.90;;;;;;;23.93;51.22;96023.44;5021062;28;20041;-73
2023/06/09 09:41:35;;;;;;;4.65;3.55;;;;;;;23.83;47.55;96015.19;5029234;28;20045;-74
2023/06/09 09:44:03;;;;;;;5.45;4.07;;;;;;;23.81;46.26;96020.41;5028959;28;20050;-76
2023/06/09 09:46:36;;;;;;;4.68;3.33;;;;;;;23.84;46.72;96019.56;5029388;28;20053;-73
2023/06/09 09:49:02;;;;;;;;;;;;;;;24.05;50.18;96019.31;5029000;28;20500;-73
2023/06/09 09:51:29;;;;;;;7.72;3.28;;;;;;;24.07;48.30;96016.94;5029330;28;20037;-73
2023/06/09 09:53:58;;;;;;;4.65;3.33;;;;;;;24.12;46.29;96022.06;5029047;28;20048;-73
2023/06/09 09:56:27;;;;;;;6.15;3.30;;;;;;;24.19;45.02;96030.31;5028691;28;20053;-73
2023/06/09 09:58:54;;;;;;;6.05;3.53;;;;;;;24.11;45.31;96028.00;5018613;28;20046;-73
2023/06/09 10:01:25;;;;;;;5.03;3.22;;;;;;;24.31;46.81;96022.63;5008758;28;20490;-73
2023/06/09 10:03:54;;;;;;;6.15;3.97;;;;;;;24.38;47.34;96019.78;5021658;28;20049;-73
2023/06/09 10:06:26;;;;;;;5.18;4.00;;;;;;;24.45;46.80;96005.78;5032604;28;20041;-73
2023/06/09 10:08:53;;;;;;;5.45;3.00;;;;;;;24.45;46.24;96014.13;5024794;28;20053;-73
2023/06/09 10:11:21;;;;;;;4.93;3.20;;;;;;;24.30;43.74;96018.25;5026983;28;20046;-73
2023/06/09 10:13:49;;;;;;;4.40;3.25;;;;;;;24.25;42.81;96022.28;5029402;28;20407;-73
2023/06/09 10:16:16;;;;;;;4.75;3.20;;;;;;;24.31;42.64;96017.06;5025575;28;20038;-73
2023/06/09 10:18:45;;;;;;;4.10;3.03;;;;;;;24.41;41.10;96016.16;5032542;28;20168;-73
2023/06/09 10:21:12;;;;;;;11.55;3.40;;;;;;;24.62;42.43;96021.47;5012815;28;20053;-72
2023/06/09 10:23:40;;;;;;;3.80;2.75;;;;;;;24.61;42.48;96019.88;5013165;28;20562;-73
2023/06/09 10:26:07;;;;;;;6.00;3.10;;;;;;;24.55;42.29;96016.00;5024207;28;20047;-72
2023/06/09 10:28:34;;;;;;;4.68;3.08;;;;;;;24.69;41.97;96018.59;5036011;28;20045;-73
2023/06/09 10:31:02;;;;;;;5.72;3.15;;;;;;;24.81;43.32;96005.31;5035295;28;20049;-75
2023/06/09 10:33:32;;;;;;;6.38;3.00;;;;;;;24.97;41.54;95994.31;5036021;28;20052;-74
2023/06/09 10:36:03;;;;;;;5.53;3.50;;;;;;;24.67;43.02;96004.28;5034885;28;20053;-74
2023/06/09 10:38:31;;;;;;;5.50;3.30;;;;;;;24.73;41.61;96002.59;5033791;28;20525;-73
2023/06/09 10:41:05;;;;;;;4.32;3.30;;;;;;;24.70;40.72;96009.03;5034802;28;20144;-73
2023/06/09 10:43:51;;;;;;;4.53;3.05;;;;;;;24.92;39.92;95992.00;5034627;28;20049;-73
2023/06/09 10:46:18;;;;;;;7.32;3.90;;;;;;;24.50;41.10;95999.75;5034639;28;20037;-73
2023/06/09 10:48:46;;;;;;;5.45;3.40;;;;;;;24.76;41.76;96005.78;5034017;28;20402;-73
2023/06/09 10:51:40;;;;;;;7.80;4.13;;;;;;;24.98;42.55;95990.31;5034598;28;20037;-74
2023/06/09 10:54:25;;;;;;;4.68;3.17;;;;;;;24.65;38.22;95990.00;5033928;28;20559;-74
2023/06/09 10:56:54;;;;;;;5.65;3.00;;;;;;;24.68;40.90;95983.59;5034535;28;20041;-73
2023/06/09 11:00:15;;;;;;;4.05;3.28;;;;;;;24.86;39.74;95982.56;5033441;28;20037;-73
2023/06/09 11:02:44;;;;;;;7.60;3.90;;;;;;;24.87;38.65;95984.91;5037991;28;20051;-73
2023/06/09 11:05:11;;;;;;;8.52;4.25;;;;;;;24.86;43.20;95977.00;5025534;28;20046;-74
2023/06/09 11:07:48;;;;;;;5.28;3.83;;;;;;;24.87;44.93;95978.56;5034635;28;20049;-74
2023/06/09 11:10:36;;;;;;;5.40;3.90;;;;;;;24.92;47.11;95972.53;5033857;28;20044;-73
2023/06/09 11:13:19;;;;;;;6.32;3.88;;;;;;;24.95;44.79;95980.84;5032518;28;20076;-73
2023/06/09 11:16:00;;;;;;;7.82;4.78;;;;;;;24.82;45.96;95971.47;5030940;28;20060;-73
2023/06/09 11:18:28;;;;;;;5.93;3.83;;;;;;;24.74;48.03;95958.84;5031310;28;20520;-73
2023/06/09 11:21:16;;;;;;;7.32;4.03;;;;;;;24.53;47.74;95964.72;5031494;28;20132;-73
2023/06/09 11:24:04;;;;;;;9.07;4.80;;;;;;;24.46;45.98;95966.41;5031577;28;20042;-73
2023/06/09 11:26:36;;;;;;;6.30;4.53;;;;;;;24.46;46.34;95969.19;5031188;28;20107;-73
2023/06/09 11:29:15;;;;;;;10.27;4.38;;;;;;;24.71;43.78;95959.69;5030430;28;20144;-73
2023/06/09 11:31:51;;;;;;;5.95;3.60;;;;;;;24.93;42.33;95955.38;5031332;28;20042;-73
2023/06/09 11:34:59;;;;;;;6.70;3.38;;;;;;;25.02;42.41;95952.06;5030772;28;20045;-73
2023/06/09 11:37:26;;;;;;;6.30;3.80;;;;;;;25.11;44.66;95949.56;5030529;28;20080;-73
2023/06/09 11:39:54;;;;;;;4.82;3.72;;;;;;;25.17;43.92;95947.09;5031043;28;20049;-73